createdAt,value
2022-09-02T00:03:18.063Z,100592.41
2022-09-02T00:08:22.279Z,100588.22
2022-09-02T00:13:25.408Z,100586.75
2022-09-02T00:18:28.178Z,100587.97
2022-09-02T00:23:33.327Z,100582.94
2022-09-02T00:28:36.714Z,100572.44
2022-09-02T00:33:39.686Z,100577.25
2022-09-02T00:38:43.779Z,100584.75
2022-09-02T00:43:50.199Z,100572.41
2022-09-02T00:48:58.277Z,100568.97
2022-09-02T00:54:02.861Z,100575.47
2022-09-02T00:59:05.903Z,100567.50
2022-09-02T01:04:08.900Z,100570.56
2022-09-02T01:09:16.172Z,100567.13
2022-09-02T01:14:19.103Z,100563.78
2022-09-02T01:19:24.990Z,100554.19
2022-09-02T01:24:31.474Z,100559.00
2022-09-02T01:29:34.272Z,100554.56
2022-09-02T01:34:37.988Z,100556.63
2022-09-02T01:39:42.849Z,100551.47
2022-09-02T01:44:46.303Z,100561.53
2022-09-02T01:49:50.742Z,100550.13
2022-09-02T01:54:55.629Z,100545.78
2022-09-02T01:59:58.655Z,100547.75
2022-09-02T02:05:02.709Z,100548.00
2022-09-02T02:10:08.453Z,100535.72
2022-09-02T02:15:14.904Z,100537.66
2022-09-02T02:20:19.831Z,100535.19
2022-09-02T02:25:24.120Z,100538.13
2022-09-02T02:30:29.814Z,100533.84
2022-09-02T02:35:33.448Z,100544.84
2022-09-02T02:40:38.472Z,100530.69
2022-09-02T02:45:41.896Z,100531.66
2022-09-02T02:50:47.372Z,100518.41
2022-09-02T02:55:51.909Z,100520.34
2022-09-02T03:00:55.836Z,100520.47
2022-09-02T03:05:59.184Z,100518.88
2022-09-02T03:11:06.983Z,100517.25
2022-09-02T03:16:14.022Z,100517.50
2022-09-02T03:21:18.732Z,100529.41
2022-09-02T03:26:25.791Z,100523.00
2022-09-02T03:31:29.317Z,100525.72
2022-09-02T03:36:36.055Z,100527.03
2022-09-02T03:41:41.964Z,100524.47
2022-09-02T03:46:45.546Z,100521.88
2022-09-02T03:51:48.302Z,100514.75
2022-09-02T03:56:53.821Z,100517.69
2022-09-02T04:01:57.030Z,100514.25
2022-09-02T04:07:00.397Z,100519.75
2022-09-02T04:12:07.067Z,100520.00
2022-09-02T04:17:11.014Z,100518.38
2022-09-02T04:22:13.824Z,100519.50
2022-09-02T04:27:18.086Z,100517.78
2022-09-02T04:32:21.754Z,100520.59
2022-09-02T04:37:25.633Z,100518.97
2022-09-02T04:42:29.841Z,100518.22
2022-09-02T04:47:33.423Z,100514.88
2022-09-02T04:52:37.264Z,100523.13
2022-09-02T04:57:42.109Z,100524.97
2022-09-02T05:02:45.046Z,100530.25
2022-09-02T05:07:47.893Z,100526.69
2022-09-02T05:12:53.367Z,100527.53
2022-09-02T05:17:56.311Z,100527.53
2022-09-02T05:23:00.365Z,100521.41
2022-09-02T05:28:05.968Z,100527.53
2022-09-02T05:33:10.425Z,100532.09
2022-09-02T05:38:17.277Z,100523.97
2022-09-02T05:43:23.911Z,100530.38
2022-09-02T05:48:44.286Z,100526.81
2022-09-02T05:53:48.011Z,100527.66
2022-09-02T05:58:52.995Z,100525.81
2022-09-02T06:03:57.457Z,100521.41
2022-09-02T06:09:00.578Z,100522.25
2022-09-02T06:14:05.894Z,100526.69
2022-09-02T06:19:15.275Z,100529.38
2022-09-02T06:24:24.057Z,100524.09
2022-09-02T06:29:28.933Z,100531.22
2022-09-02T06:34:32.016Z,100528.53
2022-09-02T06:39:35.904Z,100532.09
2022-09-02T06:44:42.096Z,100521.28
2022-09-02T06:49:44.956Z,100528.41
2022-09-02T06:54:49.068Z,100529.25
2022-09-02T06:59:53.306Z,100530.88
2022-09-02T07:05:10.540Z,100526.66
2022-09-02T07:10:15.412Z,100529.41
2022-09-02T07:15:25.316Z,100532.53
2022-09-02T07:20:29.366Z,100524.25
2022-09-02T07:25:35.582Z,100531.91
2022-09-02T07:30:42.531Z,100526.91
2022-09-02T07:35:50.248Z,100531.25
2022-09-02T07:40:56.729Z,100524.34
2022-09-02T07:46:03.444Z,100529.75
2022-09-02T07:51:08.191Z,100530.41
2022-09-02T07:56:14.995Z,100533.84
2022-09-02T08:01:23.439Z,100531.66
2022-09-02T08:06:34.607Z,100527.53
2022-09-02T08:11:39.278Z,100530.16
2022-09-02T08:16:43.822Z,100531.66
2022-09-02T08:21:46.585Z,100539.03
2022-09-02T08:26:49.799Z,100536.78
2022-09-02T08:31:54.347Z,100528.28
2022-09-02T08:36:57.969Z,100530.63
2022-09-02T08:42:08.712Z,100532.53
2022-09-02T08:47:17.682Z,100525.28
2022-09-02T08:52:27.440Z,100516.09
2022-09-02T08:57:32.732Z,100515.06
2022-09-02T09:02:47.692Z,100507.28
2022-09-02T09:08:04.877Z,100512.06
2022-09-02T09:13:23.290Z,100505.31
2022-09-02T09:18:41.290Z,100496.28
2022-09-02T09:23:45.162Z,100495.31
2022-09-02T09:28:50.255Z,100490.75
2022-09-02T09:33:58.568Z,100498.53
2022-09-02T09:39:19.105Z,100491.41
2022-09-02T09:44:45.016Z,100482.19
2022-09-02T09:49:51.281Z,100474.22
2022-09-02T09:55:12.556Z,100470.31
2022-09-02T10:00:22.463Z,100471.84
2022-09-02T10:05:35.982Z,100470.00
2022-09-02T10:10:38.746Z,100457.22
2022-09-02T10:15:51.002Z,100461.19
2022-09-02T10:21:18.672Z,100463.03
2022-09-02T10:26:34.121Z,100457.53
2022-09-02T10:31:42.591Z,100450.69
2022-09-02T10:37:08.641Z,100452.94
2022-09-02T10:42:22.440Z,100440.78
2022-09-02T10:47:33.807Z,100441.38
2022-09-02T10:53:02.785Z,100438.44
2022-09-02T10:58:13.986Z,100438.94
2022-09-02T11:03:25.068Z,100427.78
2022-09-02T11:08:37.584Z,100435.53
2022-09-02T11:13:50.931Z,100426.31
2022-09-02T11:19:01.906Z,100429.50
2022-09-02T11:24:11.191Z,100422.13
2022-09-02T11:29:19.406Z,100414.53
2022-09-02T11:34:36.056Z,100407.78
2022-09-02T11:39:58.932Z,100401.00
2022-09-02T11:45:29.584Z,100399.66
2022-09-02T11:50:48.085Z,100392.03
2022-09-02T11:55:56.732Z,100384.63
2022-09-02T12:01:18.417Z,100384.25
2022-09-02T12:06:27.771Z,100382.41
2022-09-02T12:11:46.925Z,100388.81
2022-09-02T12:17:03.668Z,100381.19
2022-09-02T12:22:28.899Z,100387.81
2022-09-02T12:27:36.593Z,100380.31
2022-09-02T12:33:05.246Z,100379.44
2022-09-02T12:38:35.709Z,100366.38
2022-09-02T12:43:49.741Z,100363.16
2022-09-02T12:49:05.498Z,100350.00
2022-09-02T12:54:09.065Z,100352.19
2022-09-02T12:59:13.332Z,100341.09
2022-09-02T13:04:31.627Z,100340.44
2022-09-02T13:10:02.083Z,100341.53
2022-09-02T13:15:29.790Z,100336.16
2022-09-02T13:21:11.626Z,100335.63
2022-09-02T13:26:48.241Z,100329.50
2022-09-02T13:32:05.037Z,100335.38
2022-09-02T13:37:10.581Z,100331.53
2022-09-02T13:42:15.920Z,100316.88
2022-09-02T13:47:22.906Z,100315.63
2022-09-02T13:53:19.688Z,100321.97
2022-09-02T13:57:56.903Z,100315.16
2022-09-02T14:03:05.295Z,100307.47
2022-09-02T14:08:13.898Z,100294.38
2022-09-02T14:13:17.765Z,100295.03
2022-09-02T14:18:25.565Z,100302.19
2022-09-02T14:23:33.326Z,100297.91
2022-09-02T14:28:37.041Z,100293.09
2022-09-02T14:33:43.400Z,100283.53
2022-09-02T14:38:55.620Z,100285.69
2022-09-02T14:44:00.656Z,100292.44
2022-09-02T14:49:07.947Z,100285.84
2022-09-02T14:54:11.471Z,100286.84
2022-09-02T14:59:14.317Z,100278.19
2022-09-02T15:04:19.385Z,100273.34
2022-09-02T15:09:22.125Z,100274.75
2022-09-02T15:14:24.992Z,100263.03
2022-09-02T15:19:29.482Z,100270.50
2022-09-02T15:24:32.342Z,100269.34
2022-09-02T15:29:35.399Z,100261.66
2022-09-02T15:34:39.631Z,100268.38
2022-09-02T15:39:42.352Z,100274.91
2022-09-02T15:44:45.486Z,100263.66
2022-09-02T15:49:49.765Z,100252.84
2022-09-02T15:54:54.584Z,100251.41
2022-09-02T15:59:57.309Z,100253.28
2022-09-02T16:05:01.587Z,100273.13
2022-09-02T16:10:04.610Z,100257.97
2022-09-02T16:15:08.987Z,100253.41
2022-09-02T16:20:14.656Z,100254.25
2022-09-02T16:25:19.157Z,100245.81
2022-09-02T16:30:21.932Z,100240.53
2022-09-02T16:35:26.018Z,100242.53
2022-09-02T16:40:28.787Z,100238.69
2022-09-02T16:45:31.969Z,100227.94
2022-09-02T16:50:35.984Z,100230.53
2022-09-02T16:55:41.547Z,100228.81
2022-09-02T17:00:45.254Z,100217.50
2022-09-02T17:05:49.330Z,100223.81
2022-09-02T17:10:52.155Z,100207.78
2022-09-02T17:15:54.967Z,100210.97
2022-09-02T17:21:16.304Z,100209.66
2022-09-02T17:26:20.119Z,100200.38
2022-09-02T17:31:25.694Z,100213.50
2022-09-02T17:36:31.879Z,100216.97
2022-09-02T17:41:52.082Z,100214.66
2022-09-02T17:46:56.707Z,100225.38
2022-09-02T17:52:00.902Z,100218.53
2022-09-02T17:57:20.118Z,100227.41
2022-09-02T18:02:38.963Z,100230.41
2022-09-02T18:07:50.905Z,100218.53
2022-09-02T18:12:53.683Z,100230.81
2022-09-02T18:17:56.411Z,100234.22
2022-09-02T18:23:15.500Z,100236.09
2022-09-02T18:28:32.627Z,100235.38
2022-09-02T18:33:56.684Z,100246.09
2022-09-02T18:39:21.501Z,100237.94
2022-09-02T18:44:36.533Z,100243.94
2022-09-02T18:49:39.744Z,100242.53
2022-09-02T18:54:48.310Z,100243.81
2022-09-02T18:59:54.716Z,100249.25
2022-09-02T19:04:58.601Z,100252.53
2022-09-02T19:10:08.942Z,100252.94
2022-09-02T19:15:13.570Z,100244.66
2022-09-02T19:20:17.670Z,100247.63
2022-09-02T19:25:31.334Z,100248.09
2022-09-02T19:30:37.372Z,100256.38
2022-09-02T19:35:46.437Z,100258.94
2022-09-02T19:40:50.542Z,100256.53
2022-09-02T19:45:53.483Z,100257.81
2022-09-02T19:50:56.543Z,100266.50
2022-09-02T19:56:01.328Z,100270.53
2022-09-02T20:01:05.254Z,100272.22
2022-09-02T20:06:08.127Z,100274.53
2022-09-02T20:11:12.183Z,100277.38
2022-09-02T20:16:18.276Z,100275.94
2022-09-02T20:21:24.474Z,100274.81
2022-09-02T20:26:41.951Z,100283.25
2022-09-02T20:31:58.866Z,100278.78
2022-09-02T20:37:11.123Z,100281.50
2022-09-02T20:42:33.022Z,100283.66
2022-09-02T20:47:50.368Z,100287.78
2022-09-02T20:53:10.815Z,100283.47
2022-09-02T20:58:36.812Z,100286.94
2022-09-02T21:03:52.679Z,100293.34
2022-09-02T21:09:03.755Z,100293.34
2022-09-02T21:14:13.875Z,100295.94
2022-09-02T21:19:25.014Z,100293.34
2022-09-02T21:24:36.925Z,100298.03
2022-09-02T21:29:47.196Z,100292.88
2022-09-02T21:34:56.580Z,100296.31
2022-09-02T21:40:06.162Z,100291.44
2022-09-02T21:45:18.256Z,100284.13
2022-09-02T21:50:27.993Z,100293.75
2022-09-02T21:55:42.189Z,100284.13
2022-09-02T22:00:55.559Z,100288.56
2022-09-02T22:06:05.327Z,100280.56
2022-09-02T22:11:13.736Z,100279.31
2022-09-02T22:16:32.717Z,100267.88
2022-09-02T22:21:43.712Z,100260.16
2022-09-02T22:26:51.460Z,100268.72
2022-09-02T22:31:59.421Z,100269.31
2022-09-02T22:37:06.811Z,100269.72
2022-09-02T22:42:20.032Z,100267.72
2022-09-02T22:47:43.610Z,100263.03
2022-09-02T22:52:54.560Z,100256.84
2022-09-02T22:58:05.306Z,100254.88
2022-09-02T23:03:15.593Z,100251.44
2022-09-02T23:08:20.402Z,100255.16
2022-09-02T23:13:39.029Z,100249.88
2022-09-02T23:18:52.836Z,100249.00
2022-09-02T23:24:09.233Z,100247.16
2022-09-02T23:29:17.861Z,100247.88
2022-09-02T23:34:35.197Z,100253.44
2022-09-02T23:40:01.940Z,100243.84
2022-09-02T23:45:21.726Z,100244.16
2022-09-02T23:50:37.502Z,100243.81
2022-09-02T23:55:48.569Z,100225.13
